Home > Products > Valid Products > TAF

000
FTUS43 KOAX 262320
TAFOFK
TAF
KOFK 262320Z 2700/2724 34015G25KT P6SM OVC100
     FM270200 35008KT P6SM OVC050
     FM270300 35004KT P6SM OVC025
     FM270800 VRB05KT P6SM BKN100
     FM272000 15012KT P6SM OVC100=



000
FTUS43 KOAX 262320
TAFOMA
TAF
KOMA 262320Z 2700/2724 35015G25KT P6SM OVC015
     FM270300 34006KT P6SM OVC050
     FM271500 12012KT P6SM OVC100=



000
FTUS43 KOAX 262320
TAFOMA
TAF
KOMA 262320Z 2700/2724 35015G25KT P6SM OVC015
     FM270300 34006KT P6SM OVC050
     FM271500 12012KT P6SM OVC100=



000
FTUS43 KOAX 262320
TAFOFK
TAF
KOFK 262320Z 2700/2724 34015G25KT P6SM OVC100
     FM270200 35008KT P6SM OVC050
     FM270300 35004KT P6SM OVC025
     FM270800 VRB05KT P6SM BKN100
     FM272000 15012KT P6SM OVC100=



000
FTUS43 KOAX 262320
TAFLNK
TAF
KLNK 262320Z 2700/2724 35015G25KT P6SM OVC100
      TEMPO 2700/2702 OVC015
     FM270200 35006KT P6SM BKN100
     FM271900 15012KT P6SM BKN250=



000
FTUS43 KOAX 262320
TAFLNK
TAF
KLNK 262320Z 2700/2724 35015G25KT P6SM OVC100
      TEMPO 2700/2702 OVC015
     FM270200 35006KT P6SM BKN100
     FM271900 15012KT P6SM BKN250=



000
FTUS43 KOAX 261726
TAFOFK
TAF
KOFK 261726Z 2618/2718 34023G30KT P6SM OVC015
     FM262100 34018G25KT P6SM OVC015
      TEMPO 2621/2624 35015KT P6SM SCT015 BKN025
     FM270000 35010KT P6SM SCT025 BKN100
     FM270500 35004KT P6SM BKN050=



000
FTUS43 KOAX 261726
TAFOMA
TAF
KOMA 261726Z 2618/2718 34024G32KT P6SM -SN OVC016
     FM262300 34015KT P6SM SCT015 OVC025
     FM270100 34011KT P6SM BKN025
     FM270400 34006KT P6SM SCT020 BKN250=



000
FTUS43 KOAX 261726
TAFLNK
TAF
KLNK 261726Z 2618/2718 34025G32KT P6SM OVC016
     FM262100 34020G26KT P6SM OVC025
     FM270000 34014KT P6SM BKN100
     FM270200 34008KT P6SM BKN100=



000
FTUS43 KOAX 261726
TAFOFK
TAF
KOFK 261726Z 2618/2718 34023G30KT P6SM OVC015
     FM262100 34018G25KT P6SM OVC015
      TEMPO 2621/2624 35015KT P6SM SCT015 BKN025
     FM270000 35010KT P6SM SCT025 BKN100
     FM270500 35004KT P6SM BKN050=



000
FTUS43 KOAX 261726
TAFOMA
TAF
KOMA 261726Z 2618/2718 34024G32KT P6SM -SN OVC016
     FM262300 34015KT P6SM SCT015 OVC025
     FM270100 34011KT P6SM BKN025
     FM270400 34006KT P6SM SCT020 BKN250=



000
FTUS43 KOAX 261726
TAFLNK
TAF
KLNK 261726Z 2618/2718 34025G32KT P6SM OVC016
     FM262100 34020G26KT P6SM OVC025
     FM270000 34014KT P6SM BKN100
     FM270200 34008KT P6SM BKN100=



000
FTUS43 KOAX 261639 AAB
TAFOFK
TAF AMD
KOFK 261639Z 2617/2712 34025G32KT P6SM -SN OVC015
     FM262100 34018G25KT P6SM OVC025
     FM262300 35015KT P6SM BKN025
     FM270030 35010KT P6SM SCT030 BKN250
     FM270500 34004KT P6SM BKN040=



000
FTUS43 KOAX 261635 AAB
TAFLNK
TAF AMD
KLNK 261635Z 2617/2712 34025G32KT P6SM OVC015
     FM262100 34022G28KT P6SM OVC025
     FM270000 34014KT P6SM BKN100
     FM270200 34010KT P6SM SCT030 BKN250
     FM270500 35006KT P6SM SCT030 BKN090=



000
FTUS43 KOAX 261631 AAB
TAFOMA
TAF AMD
KOMA 261631Z 2617/2712 34024G32KT P6SM -SN OVC014
     FM261800 34024G32KT P6SM OVC015
     FM262300 34014KT P6SM BKN025 BKN100
     FM270400 34009KT P6SM SCT020 BKN200=



000
FTUS43 KOAX 261631 AAB
TAFOMA
TAF AMD
KOMA 261631Z 2617/2712 34024G32KT P6SM -SN OVC014
     FM261800 34024G32KT P6SM OVC015
     FM262300 34014KT P6SM BKN025 BKN100
     FM270400 34009KT P6SM SCT020 BKN200=



000
FTUS43 KOAX 261327 AAA
TAFOFK
TAF AMD
KOFK 261327Z 2613/2712 32020G30KT P6SM OVC015
      TEMPO 2613/2615 5SM -SN BKN008 OVC015
     FM261500 33022G32KT P6SM OVC015
      TEMPO 2615/2618 6SM -SN OVC010
     FM262000 34019G27KT P6SM SCT025 BKN050
     FM262300 35010KT P6SM SCT030 BKN250
     FM270500 34004KT P6SM BKN040=



000
FTUS43 KOAX 261327 AAA
TAFOFK
TAF AMD
KOFK 261327Z 2613/2712 32020G30KT P6SM OVC015
      TEMPO 2613/2615 5SM -SN BKN008 OVC015
     FM261500 33022G32KT P6SM OVC015
      TEMPO 2615/2618 6SM -SN OVC010
     FM262000 34019G27KT P6SM SCT025 BKN050
     FM262300 35010KT P6SM SCT030 BKN250
     FM270500 34004KT P6SM BKN040=



000
FTUS43 KOAX 261325 AAA
TAFOMA
TAF AMD
KOMA 261325Z 2613/2712 31017G27KT P6SM OVC025
      TEMPO 2613/2615 5SM -RASN OVC012
     FM261500 32020G30KT P6SM BKN018 OVC050
     FM261700 33022G32KT P6SM BKN020
     FM262300 34014KT P6SM SCT025 BKN100
     FM270400 34009KT P6SM SCT020 BKN200=



000
FTUS43 KOAX 261325 AAA
TAFOMA
TAF AMD
KOMA 261325Z 2613/2712 31017G27KT P6SM OVC025
      TEMPO 2613/2615 5SM -RASN OVC012
     FM261500 32020G30KT P6SM BKN018 OVC050
     FM261700 33022G32KT P6SM BKN020
     FM262300 34014KT P6SM SCT025 BKN100
     FM270400 34009KT P6SM SCT020 BKN200=



000
FTUS43 KOAX 261245 AAA
TAFLNK
TAF AMD
KLNK 261245Z 2613/2712 32020G29KT P6SM SCT020 BKN050
      TEMPO 2613/2615 6SM -SN OVC020
     FM261500 33022G32KT P6SM BKN040
      TEMPO 2615/2619 34024G34KT BKN025
     FM262000 34020G28KT P6SM SCT025 BKN200
     FM262300 34013KT P6SM SCT030 BKN250
     FM270500 35006KT P6SM SCT030 BKN090=



000
FTUS43 KOAX 261245 AAA
TAFLNK
TAF AMD
KLNK 261245Z 2613/2712 32020G29KT P6SM SCT020 BKN050
      TEMPO 2613/2615 6SM -SN OVC020
     FM261500 33022G32KT P6SM BKN040
      TEMPO 2615/2619 34024G34KT BKN025
     FM262000 34020G28KT P6SM SCT025 BKN200
     FM262300 34013KT P6SM SCT030 BKN250
     FM270500 35006KT P6SM SCT030 BKN090=



000
FTUS43 KOAX 261120
TAFOFK
TAF
KOFK 261120Z 2612/2712 33019G27KT P6SM BKN025 OVC040
      TEMPO 2612/2614 5SM -SN BKN012 OVC025
     FM261400 33022G32KT P6SM BKN020
      TEMPO 2614/2618 5SM -SN OVC015
     FM261900 34022G30KT P6SM SCT025 BKN050
     FM262300 35010KT P6SM SCT030 BKN250
     FM270500 34004KT P6SM BKN040=



000
FTUS43 KOAX 261120
TAFLNK
TAF
KLNK 261120Z 2612/2712 31014G22KT P6SM SCT025 BKN050
      TEMPO 2612/2614 6SM -SN BKN025
     FM261400 33022G32KT P6SM BKN040
      TEMPO 2614/2618 34024G34KT BKN025
     FM262000 34020G28KT P6SM SCT025 BKN200
     FM262300 34013KT P6SM SCT030 BKN250
     FM270500 35006KT P6SM SCT030 BKN090=



000
FTUS43 KOAX 261120
TAFOMA
TAF
KOMA 261120Z 2612/2712 30013G21KT P6SM OVC025
      TEMPO 2612/2614 5SM -RASN OVC018
     FM261400 31018G26KT P6SM BKN018 OVC050
     FM261700 33022G32KT P6SM BKN020
     FM262300 34014KT P6SM SCT025 BKN100
     FM270400 34009KT P6SM SCT020 BKN200=



000
FTUS43 KOAX 261120
TAFOFK
TAF
KOFK 261120Z 2612/2712 33019G27KT P6SM BKN025 OVC040
      TEMPO 2612/2614 5SM -SN BKN012 OVC025
     FM261400 33022G32KT P6SM BKN020
      TEMPO 2614/2618 5SM -SN OVC015
     FM261900 34022G30KT P6SM SCT025 BKN050
     FM262300 35010KT P6SM SCT030 BKN250
     FM270500 34004KT P6SM BKN040=



000
FTUS43 KOAX 261120
TAFLNK
TAF
KLNK 261120Z 2612/2712 31014G22KT P6SM SCT025 BKN050
      TEMPO 2612/2614 6SM -SN BKN025
     FM261400 33022G32KT P6SM BKN040
      TEMPO 2614/2618 34024G34KT BKN025
     FM262000 34020G28KT P6SM SCT025 BKN200
     FM262300 34013KT P6SM SCT030 BKN250
     FM270500 35006KT P6SM SCT030 BKN090=



000
FTUS43 KOAX 261107 AAE
TAFOMA
TAF AMD
KOMA 261107Z 2611/2706 30013G21KT P6SM OVC025
      TEMPO 2611/2613 5SM -RASN OVC018
     FM261400 31018G26KT P6SM BKN018 OVC050
     FM261700 33020G30KT P6SM SCT025 BKN050
     FM262300 34014KT P6SM SCT030 BKN250=



000
FTUS43 KOAX 261107 AAE
TAFOMA
TAF AMD
KOMA 261107Z 2611/2706 30013G21KT P6SM OVC025
      TEMPO 2611/2613 5SM -RASN OVC018
     FM261400 31018G26KT P6SM BKN018 OVC050
     FM261700 33020G30KT P6SM SCT025 BKN050
     FM262300 34014KT P6SM SCT030 BKN250=



000
FTUS43 KOAX 261104 AAC
TAFLNK
TAF AMD
KLNK 261104Z 2611/2706 31014G22KT P6SM SCT025 BKN050
      TEMPO 2611/2614 6SM -SN BKN025
     FM261400 33020G30KT P6SM BKN040
      TEMPO 2614/2618 34024G34KT BKN025
     FM262300 34010KT P6SM SCT040 BKN250=



000
FTUS43 KOAX 261104 AAC
TAFLNK
TAF AMD
KLNK 261104Z 2611/2706 31014G22KT P6SM SCT025 BKN050
      TEMPO 2611/2614 6SM -SN BKN025
     FM261400 33020G30KT P6SM BKN040
      TEMPO 2614/2618 34024G34KT BKN025
     FM262300 34010KT P6SM SCT040 BKN250=



000
FTUS43 KOAX 260918 AAD
TAFOMA
TAF AMD
KOMA 260918Z 2609/2706 30011KT P6SM BKN025
      TEMPO 2609/2613 BKN018
     FM261400 31018G26KT P6SM BKN018 OVC050
     FM261700 33020G30KT P6SM SCT025 BKN050
     FM262300 34014KT P6SM SCT030 BKN250=



000
FTUS43 KOAX 260918 AAD
TAFOMA
TAF AMD
KOMA 260918Z 2609/2706 30011KT P6SM BKN025
      TEMPO 2609/2613 BKN018
     FM261400 31018G26KT P6SM BKN018 OVC050
     FM261700 33020G30KT P6SM SCT025 BKN050
     FM262300 34014KT P6SM SCT030 BKN250=



000
FTUS43 KOAX 260820 AAC
TAFOMA
TAF AMD
KOMA 260820Z 2608/2706 25008KT P6SM SCT015 BKN050
      TEMPO 2608/2610 BKN015
     FM261000 27011KT P6SM SCT020 BKN050
      TEMPO 2610/2614 BKN020
     FM261400 31018G26KT P6SM BKN020 OVC050
     FM261700 33020G30KT P6SM SCT025 BKN050
     FM262300 34014KT P6SM SCT030 BKN250=



000
FTUS43 KOAX 260820 AAC
TAFOMA
TAF AMD
KOMA 260820Z 2608/2706 25008KT P6SM SCT015 BKN050
      TEMPO 2608/2610 BKN015
     FM261000 27011KT P6SM SCT020 BKN050
      TEMPO 2610/2614 BKN020
     FM261400 31018G26KT P6SM BKN020 OVC050
     FM261700 33020G30KT P6SM SCT025 BKN050
     FM262300 34014KT P6SM SCT030 BKN250=



000
FTUS43 KOAX 260815 AAB
TAFLNK
TAF AMD
KLNK 260815Z 2608/2706 29010KT P6SM BKN040
     FM261100 31014G23KT P6SM SCT025 BKN050
     FM261400 33020G30KT P6SM BKN040
      TEMPO 2614/2618 BKN025
     FM262300 34010KT P6SM SCT040 BKN250=



000
FTUS43 KOAX 260815 AAB
TAFLNK
TAF AMD
KLNK 260815Z 2608/2706 29010KT P6SM BKN040
     FM261100 31014G23KT P6SM SCT025 BKN050
     FM261400 33020G30KT P6SM BKN040
      TEMPO 2614/2618 BKN025
     FM262300 34010KT P6SM SCT040 BKN250=



000
FTUS43 KOAX 260742 AAB
TAFOMA
TAF AMD
KOMA 260742Z 2608/2706 20010KT P6SM SCT020 BKN050
      TEMPO 2608/2611 BKN020
     FM261100 28011KT P6SM BKN025
     FM261500 31018G26KT P6SM BKN020 OVC050
     FM261800 33020G30KT P6SM SCT025 BKN050
     FM262300 34014KT P6SM SCT030 BKN250=



000
FTUS43 KOAX 260709 AAB
TAFOFK
TAF AMD
KOFK 260709Z 2607/2706 30013G21KT P6SM SCT025 BKN040
      TEMPO 2608/2611 BKN025
     FM261100 33018G26KT P6SM BKN025 OVC040
     FM261400 33022G32KT P6SM BKN025
      TEMPO 2614/2618 5SM -SN OVC015
     FM262300 35010KT P6SM BKN250=



000
FTUS43 KOAX 260709 AAB
TAFOFK
TAF AMD
KOFK 260709Z 2607/2706 30013G21KT P6SM SCT025 BKN040
      TEMPO 2608/2611 BKN025
     FM261100 33018G26KT P6SM BKN025 OVC040
     FM261400 33022G32KT P6SM BKN025
      TEMPO 2614/2618 5SM -SN OVC015
     FM262300 35010KT P6SM BKN250=



000
FTUS43 KOAX 260704 AAA
TAFLNK
TAF AMD
KLNK 260704Z 2607/2706 31013KT P6SM BKN040
     FM261000 31014G23KT P6SM SCT020 BKN050
      TEMPO 2610/2614 BKN020
     FM261400 33020G30KT P6SM BKN040
      TEMPO 2614/2618 BKN025
     FM262300 34010KT P6SM SCT040 BKN250=



000
FTUS43 KOAX 260704 AAA
TAFLNK
TAF AMD
KLNK 260704Z 2607/2706 31013KT P6SM BKN040
     FM261000 31014G23KT P6SM SCT020 BKN050
      TEMPO 2610/2614 BKN020
     FM261400 33020G30KT P6SM BKN040
      TEMPO 2614/2618 BKN025
     FM262300 34010KT P6SM SCT040 BKN250=



000
FTUS43 KOAX 260700 AAA
TAFOMA
TAF AMD
KOMA 260700Z 2607/2706 20013KT P6SM -RA OVC030
      TEMPO 2607/2609 5SM -RASN BKN015 OVC030
     FM260900 30013KT P6SM SCT020 OVC040
      TEMPO 2609/2612 BKN020
     FM261500 33018G26KT P6SM BKN020 OVC050
     FM262300 34014KT P6SM BKN250=



000
FTUS43 KOAX 260700 AAA
TAFOMA
TAF AMD
KOMA 260700Z 2607/2706 20013KT P6SM -RA OVC030
      TEMPO 2607/2609 5SM -RASN BKN015 OVC030
     FM260900 30013KT P6SM SCT020 OVC040
      TEMPO 2609/2612 BKN020
     FM261500 33018G26KT P6SM BKN020 OVC050
     FM262300 34014KT P6SM BKN250=



000
FTUS43 KOAX 260548 AAA
TAFOFK
TAF AMD
KOFK 260548Z 2606/2706 32014G29KT P6SM BKN030
     FM261200 33022G32KT P6SM OVC040
     FM270000 34010KT P6SM BKN250=



000
FTUS43 KOAX 260548 AAA
TAFOFK
TAF AMD
KOFK 260548Z 2606/2706 32014G29KT P6SM BKN030
     FM261200 33022G32KT P6SM OVC040
     FM270000 34010KT P6SM BKN250=



000
FTUS43 KOAX 260523
TAFLNK
TAF
KLNK 260523Z 2606/2706 18016G22KT P6SM OVC050
      TEMPO 2606/2608 5SM -RA BKN035
     FM260800 31019G29KT P6SM OVC040
     FM261200 32020G30KT P6SM BKN100
     FM270000 34010KT P6SM BKN250=



000
FTUS43 KOAX 260523
TAFOFK
TAF
KOFK 260523Z 2606/2706 32014G29KT P6SM SCT050
     FM261200 33022G32KT P6SM OVC040
     FM270000 34010KT P6SM BKN250=



000
FTUS43 KOAX 260523
TAFOMA
TAF
KOMA 260523Z 2606/2706 18013KT P6SM OVC045
      TEMPO 2606/2609 5SM -RA OVC030
     FM260900 32015G28KT P6SM OVC040
     FM261200 33019G30KT P6SM OVC100
     FM270000 34010KT P6SM BKN250=



000
FTUS43 KOAX 260523
TAFOMA
TAF
KOMA 260523Z 2606/2706 18013KT P6SM OVC045
      TEMPO 2606/2609 5SM -RA OVC030
     FM260900 32015G28KT P6SM OVC040
     FM261200 33019G30KT P6SM OVC100
     FM270000 34010KT P6SM BKN250=



000
FTUS43 KOAX 260523
TAFOFK
TAF
KOFK 260523Z 2606/2706 32014G29KT P6SM SCT050
     FM261200 33022G32KT P6SM OVC040
     FM270000 34010KT P6SM BKN250=



000
FTUS43 KOAX 260523
TAFLNK
TAF
KLNK 260523Z 2606/2706 18016G22KT P6SM OVC050
      TEMPO 2606/2608 5SM -RA BKN035
     FM260800 31019G29KT P6SM OVC040
     FM261200 32020G30KT P6SM BKN100
     FM270000 34010KT P6SM BKN250=



000
FTUS43 KOAX 260405 AAB
TAFOFK
TAF AMD
KOFK 260405Z 2604/2624 28005KT P6SM BKN050
     FM260600 31020G28KT P6SM OVC025
     FM261200 33022G29KT P6SM BKN020 OVC050 PROB30 2614/2618 5SM
      -SN=



000
FTUS43 KOAX 260405 AAB
TAFOFK
TAF AMD
KOFK 260405Z 2604/2624 28005KT P6SM BKN050
     FM260600 31020G28KT P6SM OVC025
     FM261200 33022G29KT P6SM BKN020 OVC050 PROB30 2614/2618 5SM
      -SN=



000
FTUS43 KOAX 260315 AAA
TAFOMA
TAF AMD
KOMA 260315Z 2603/2624 17014KT P6SM OVC060
      TEMPO 2603/2606 5SM -SHRA BKN035
     FM260600 26012KT 1SM -SN BR OVC015
     FM260900 32017G26KT P6SM OVC020 PROB30 2615/2618 5SM -SN=



000
FTUS43 KOAX 260315 AAA
TAFOMA
TAF AMD
KOMA 260315Z 2603/2624 17014KT P6SM OVC060
      TEMPO 2603/2606 5SM -SHRA BKN035
     FM260600 26012KT 1SM -SN BR OVC015
     FM260900 32017G26KT P6SM OVC020 PROB30 2615/2618 5SM -SN=



000
FTUS43 KOAX 260007 AAA
TAFOFK
TAF AMD
KOFK 260007Z 2600/2624 18010KT 6SM -RA OVC035
      TEMPO 2602/2604 3SM -RASN BKN030
     FM260400 29013KT 1SM -SN OVC010
     FM260600 31020G28KT P6SM OVC018
     FM261200 33022G29KT P6SM BKN020 OVC050 PROB30 2614/2618 5SM
      -SN=



000
FTUS43 KOAX 260007 AAA
TAFOFK
TAF AMD
KOFK 260007Z 2600/2624 18010KT 6SM -RA OVC035
      TEMPO 2602/2604 3SM -RASN BKN030
     FM260400 29013KT 1SM -SN OVC010
     FM260600 31020G28KT P6SM OVC018
     FM261200 33022G29KT P6SM BKN020 OVC050 PROB30 2614/2618 5SM
      -SN=



000
FTUS43 KOAX 252327
TAFLNK
TAF
KLNK 252327Z 2600/2624 18008KT P6SM OVC110
     FM260700 31019G25KT P6SM BKN025
     FM261200 33020G29KT P6SM OVC020=



000
FTUS43 KOAX 252327
TAFOFK
TAF
KOFK 252327Z 2600/2624 18010KT P6SM OVC080
      TEMPO 2602/2604 3SM -RASN BKN040
     FM260400 29013KT 1SM -SN OVC010
     FM260600 31020G28KT P6SM OVC018
     FM261200 33022G29KT P6SM BKN020 OVC050 PROB30 2614/2618 5SM
      -SN=



000
FTUS43 KOAX 252327
TAFLNK
TAF
KLNK 252327Z 2600/2624 18008KT P6SM OVC110
     FM260700 31019G25KT P6SM BKN025
     FM261200 33020G29KT P6SM OVC020=



000
FTUS43 KOAX 252327
TAFOFK
TAF
KOFK 252327Z 2600/2624 18010KT P6SM OVC080
      TEMPO 2602/2604 3SM -RASN BKN040
     FM260400 29013KT 1SM -SN OVC010
     FM260600 31020G28KT P6SM OVC018
     FM261200 33022G29KT P6SM BKN020 OVC050 PROB30 2614/2618 5SM
      -SN=



000
FTUS43 KOAX 252327
TAFOMA
TAF
KOMA 252327Z 2600/2624 15010KT P6SM OVC100
     FM260600 26012KT 1SM -SN BR OVC015
     FM260900 32017G26KT P6SM OVC020 PROB30 2615/2618 5SM -SN=



000
FTUS43 KOAX 252327
TAFOMA
TAF
KOMA 252327Z 2600/2624 15010KT P6SM OVC100
     FM260600 26012KT 1SM -SN BR OVC015
     FM260900 32017G26KT P6SM OVC020 PROB30 2615/2618 5SM -SN=



000
FTUS43 KOAX 251727
TAFOFK
TAF
KOFK 251727Z 2518/2618 20011KT P6SM BKN250
     FM252300 18010KT P6SM SCT025 OVC050
      TEMPO 2602/2604 3SM -RASN BKN020
     FM260400 29013KT 1SM -SN OVC010
     FM260600 31020G28KT P6SM OVC018=



000
FTUS43 KOAX 251727
TAFOMA
TAF
KOMA 251727Z 2518/2618 18011KT P6SM BKN250
     FM260000 16013KT P6SM SCT025 OVC070 PROB30 2603/2606 5SM -RASN
      OVC025
     FM260600 26012KT 1SM -SN BR OVC015
     FM260900 32017G26KT P6SM OVC020=



000
FTUS43 KOAX 251727
TAFLNK
TAF
KLNK 251727Z 2518/2618 21011KT P6SM BKN250
     FM260000 17010KT P6SM OVC050 PROB30 2604/2607 24010KT 5SM -RASN
      OVC025
     FM260700 31019G25KT P6SM BKN025=



000
FTUS43 KOAX 251727
TAFOFK
TAF
KOFK 251727Z 2518/2618 20011KT P6SM BKN250
     FM252300 18010KT P6SM SCT025 OVC050
      TEMPO 2602/2604 3SM -RASN BKN020
     FM260400 29013KT 1SM -SN OVC010
     FM260600 31020G28KT P6SM OVC018=



000
FTUS43 KOAX 251727
TAFLNK
TAF
KLNK 251727Z 2518/2618 21011KT P6SM BKN250
     FM260000 17010KT P6SM OVC050 PROB30 2604/2607 24010KT 5SM -RASN
      OVC025
     FM260700 31019G25KT P6SM BKN025=



000
FTUS43 KOAX 251120
TAFOMA
TAF
KOMA 251120Z 2512/2612 28006KT P6SM SCT250
     FM251500 22007KT P6SM SCT050 SCT250
     FM251900 18010KT P6SM SCT050 BKN150
     FM260000 15013KT P6SM SCT025 OVC070 PROB30 2603/2606 5SM -RA
      OVC025
     FM260600 23012KT P6SM -RASN BKN025 OVC050
      TEMPO 2606/2610 3SM -SN OVC025=



000
FTUS43 KOAX 251120
TAFLNK
TAF
KLNK 251120Z 2512/2612 26005KT P6SM SCT050
     FM251500 21008KT P6SM SCT050 SCT250
     FM251900 20011KT P6SM SCT030 BKN120
     FM260000 17010KT P6SM OVC050 PROB30 2603/2606 5SM -RA OVC025
     FM260600 28012KT P6SM BKN025
     FM261000 30016G25KT P6SM BKN030=



000
FTUS43 KOAX 251120
TAFOFK
TAF
KOFK 251120Z 2512/2612 24006KT P6SM SCT050
     FM251600 21009KT P6SM SCT250
     FM252000 19011KT P6SM BKN150
     FM260000 19010KT P6SM BKN025 OVC050 PROB30 2600/2604 4SM -RASN
     FM260400 28013KT P6SM OVC025
      TEMPO 2604/2608 3SM -SN OVC015
     FM260900 30018G26KT P6SM BKN020=



000
FTUS43 KOAX 251120
TAFOMA
TAF
KOMA 251120Z 2512/2612 28006KT P6SM SCT250
     FM251500 22007KT P6SM SCT050 SCT250
     FM251900 18010KT P6SM SCT050 BKN150
     FM260000 15013KT P6SM SCT025 OVC070 PROB30 2603/2606 5SM -RA
      OVC025
     FM260600 23012KT P6SM -RASN BKN025 OVC050
      TEMPO 2606/2610 3SM -SN OVC025=



000
FTUS43 KOAX 251120
TAFOFK
TAF
KOFK 251120Z 2512/2612 24006KT P6SM SCT050
     FM251600 21009KT P6SM SCT250
     FM252000 19011KT P6SM BKN150
     FM260000 19010KT P6SM BKN025 OVC050 PROB30 2600/2604 4SM -RASN
     FM260400 28013KT P6SM OVC025
      TEMPO 2604/2608 3SM -SN OVC015
     FM260900 30018G26KT P6SM BKN020=



000
FTUS43 KOAX 251120
TAFLNK
TAF
KLNK 251120Z 2512/2612 26005KT P6SM SCT050
     FM251500 21008KT P6SM SCT050 SCT250
     FM251900 20011KT P6SM SCT030 BKN120
     FM260000 17010KT P6SM OVC050 PROB30 2603/2606 5SM -RA OVC025
     FM260600 28012KT P6SM BKN025
     FM261000 30016G25KT P6SM BKN030=



000
FTUS43 KOAX 250521
TAFOMA
TAF
KOMA 250521Z 2506/2606 31012KT P6SM SKC
     FM251400 23008KT P6SM SCT035
     FM251800 18008KT P6SM OVC050 PROB30 2603/2606 5SM -RA=



000
FTUS43 KOAX 250521
TAFOFK
TAF
KOFK 250521Z 2506/2606 30009KT P6SM SKC
     FM251300 22009KT P6SM SCT030
     FM251800 20009KT P6SM OVC100
     FM260000 19010KT P6SM OVC050 PROB30 2601/2604 5SM -RA BKN035
     FM260400 28010KT P6SM OVC050 PROB30 2604/2606 5SM -RASN BKN030=



000
FTUS43 KOAX 250521
TAFLNK
TAF
KLNK 250521Z 2506/2606 31009KT P6SM SKC
     FM251400 21008KT P6SM SCT030
     FM251800 18008KT P6SM OVC100 PROB30 2603/2606 5SM -RA=



000
FTUS43 KOAX 250521
TAFLNK
TAF
KLNK 250521Z 2506/2606 31009KT P6SM SKC
     FM251400 21008KT P6SM SCT030
     FM251800 18008KT P6SM OVC100 PROB30 2603/2606 5SM -RA=



000
FTUS43 KOAX 250521
TAFOMA
TAF
KOMA 250521Z 2506/2606 31012KT P6SM SKC
     FM251400 23008KT P6SM SCT035
     FM251800 18008KT P6SM OVC050 PROB30 2603/2606 5SM -RA=



000
FTUS43 KOAX 250521
TAFOFK
TAF
KOFK 250521Z 2506/2606 30009KT P6SM SKC
     FM251300 22009KT P6SM SCT030
     FM251800 20009KT P6SM OVC100
     FM260000 19010KT P6SM OVC050 PROB30 2601/2604 5SM -RA BKN035
     FM260400 28010KT P6SM OVC050 PROB30 2604/2606 5SM -RASN BKN030=



000
FTUS43 KOAX 242320
TAFLNK
TAF
KLNK 242320Z 2500/2524 31018G24KT P6SM SKC
     FM250100 29008KT P6SM SKC
     FM251400 21008KT P6SM SCT030
     FM251800 18008KT P6SM OVC100=



000
FTUS43 KOAX 242320
TAFOFK
TAF
KOFK 242320Z 2500/2524 32018G28KT P6SM SKC
     FM250400 29005KT P6SM SKC
     FM251300 21009KT P6SM SCT030
     FM251800 20009KT P6SM OVC100=



000
FTUS43 KOAX 242320
TAFOMA
TAF
KOMA 242320Z 2500/2524 31017G22KT P6SM SKC
     FM250600 29006KT P6SM SKC
     FM251400 23008KT P6SM SCT035
     FM251800 18008KT P6SM OVC050=



000
FTUS43 KOAX 242320
TAFOMA
TAF
KOMA 242320Z 2500/2524 31017G22KT P6SM SKC
     FM250600 29006KT P6SM SKC
     FM251400 23008KT P6SM SCT035
     FM251800 18008KT P6SM OVC050=



000
FTUS43 KOAX 242320
TAFOFK
TAF
KOFK 242320Z 2500/2524 32018G28KT P6SM SKC
     FM250400 29005KT P6SM SKC
     FM251300 21009KT P6SM SCT030
     FM251800 20009KT P6SM OVC100=



000
FTUS43 KOAX 242320
TAFLNK
TAF
KLNK 242320Z 2500/2524 31018G24KT P6SM SKC
     FM250100 29008KT P6SM SKC
     FM251400 21008KT P6SM SCT030
     FM251800 18008KT P6SM OVC100=



000
FTUS43 KOAX 241720
TAFOFK
TAF
KOFK 241720Z 2418/2518 32020G31KT P6SM FEW025
     FM250000 32014KT P6SM SKC
     FM250400 29005KT P6SM SKC
     FM251300 21009KT P6SM SCT030=



000
FTUS43 KOAX 241720
TAFOMA
TAF
KOMA 241720Z 2418/2518 33018G27KT P6SM BKN025
     FM242000 32017G26KT P6SM SCT030
     FM250000 32014KT P6SM FEW035
     FM250600 29006KT P6SM SKC
     FM251400 23008KT P6SM SCT035=



000
FTUS43 KOAX 241720
TAFOFK
TAF
KOFK 241720Z 2418/2518 32020G31KT P6SM FEW025
     FM250000 32014KT P6SM SKC
     FM250400 29005KT P6SM SKC
     FM251300 21009KT P6SM SCT030=



000
FTUS43 KOAX 241720
TAFLNK
TAF
KLNK 241720Z 2418/2518 32020G30KT P6SM SCT030
      TEMPO 2418/2419 BKN030
     FM242300 32015KT P6SM SKC
     FM250100 29008KT P6SM SKC
     FM251400 21008KT P6SM SCT030=



000
FTUS43 KOAX 241720
TAFOMA
TAF
KOMA 241720Z 2418/2518 33018G27KT P6SM BKN025
     FM242000 32017G26KT P6SM SCT030
     FM250000 32014KT P6SM FEW035
     FM250600 29006KT P6SM SKC
     FM251400 23008KT P6SM SCT035=



000
FTUS43 KOAX 241720
TAFLNK
TAF
KLNK 241720Z 2418/2518 32020G30KT P6SM SCT030
      TEMPO 2418/2419 BKN030
     FM242300 32015KT P6SM SKC
     FM250100 29008KT P6SM SKC
     FM251400 21008KT P6SM SCT030=



000
FTUS43 KOAX 241121
TAFOFK
TAF
KOFK 241121Z 2412/2512 32022G30KT P6SM OVC025
     FM242000 32017G27KT P6SM SCT040
     FM250200 32014KT P6SM BKN150=



000
FTUS43 KOAX 241121
TAFLNK
TAF
KLNK 241121Z 2412/2512 32018G28KT P6SM OVC028
     FM241700 32018G28KT P6SM SCT040
     FM250000 32014KT P6SM SCT250=



000
FTUS43 KOAX 241121
TAFOMA
TAF
KOMA 241121Z 2412/2512 32020G30KT P6SM OVC028
     FM241700 32020G30KT P6SM OVC035
     FM250100 32015KT P6SM SCT250=



000
FTUS43 KOAX 241121
TAFLNK
TAF
KLNK 241121Z 2412/2512 32018G28KT P6SM OVC028
     FM241700 32018G28KT P6SM SCT040
     FM250000 32014KT P6SM SCT250=



000
FTUS43 KOAX 241121
TAFOFK
TAF
KOFK 241121Z 2412/2512 32022G30KT P6SM OVC025
     FM242000 32017G27KT P6SM SCT040
     FM250200 32014KT P6SM BKN150=



000
FTUS43 KOAX 241121
TAFOMA
TAF
KOMA 241121Z 2412/2512 32020G30KT P6SM OVC028
     FM241700 32020G30KT P6SM OVC035
     FM250100 32015KT P6SM SCT250=



000
FTUS43 KOAX 240734 AAA
TAFLNK
TAF AMD
KLNK 240734Z 2408/2506 32020G30KT P6SM OVC030
      TEMPO 2408/2410 SCT030
     FM241700 32020G30KT P6SM BKN040
     FM250000 32013KT P6SM SCT250=



000
FTUS43 KOAX 240734 AAA
TAFLNK
TAF AMD
KLNK 240734Z 2408/2506 32020G30KT P6SM OVC030
      TEMPO 2408/2410 SCT030
     FM241700 32020G30KT P6SM BKN040
     FM250000 32013KT P6SM SCT250=



000
FTUS43 KOAX 240557 AAA
TAFOFK
TAF AMD
KOFK 240557Z 2406/2506 33022G32KT P6SM OVC025
      TEMPO 2408/2412 -SN
     FM241600 32024G33KT P6SM BKN035
     FM250000 32015G23KT P6SM SCT250=



000
FTUS43 KOAX 240557 AAA
TAFOFK
TAF AMD
KOFK 240557Z 2406/2506 33022G32KT P6SM OVC025
      TEMPO 2408/2412 -SN
     FM241600 32024G33KT P6SM BKN035
     FM250000 32015G23KT P6SM SCT250=



000
FTUS43 KOAX 240557 AAA
TAFOMA
TAF AMD
KOMA 240557Z 2406/2506 32022G32KT P6SM OVC030
     FM240700 32020G30KT P6SM OVC025
     FM241800 33021G32KT P6SM BKN035
     FM250000 31015G23KT P6SM SCT250=



000
FTUS43 KOAX 240557 AAA
TAFOMA
TAF AMD
KOMA 240557Z 2406/2506 32022G32KT P6SM OVC030
     FM240700 32020G30KT P6SM OVC025
     FM241800 33021G32KT P6SM BKN035
     FM250000 31015G23KT P6SM SCT250=



000
FTUS43 KOAX 240520
TAFOMA
TAF
KOMA 240520Z 2406/2506 32022G32KT P6SM OVC035
     FM240700 32020G30KT P6SM OVC025
     FM241800 33021G32KT P6SM BKN035
     FM250000 31015G23KT P6SM SCT250=



000
FTUS43 KOAX 240520
TAFLNK
TAF
KLNK 240520Z 2406/2506 32020G30KT P6SM BKN035
      TEMPO 2410/2414 BKN025
     FM250000 32013KT P6SM SCT250=



000
FTUS43 KOAX 240520
TAFLNK
TAF
KLNK 240520Z 2406/2506 32020G30KT P6SM BKN035
      TEMPO 2410/2414 BKN025
     FM250000 32013KT P6SM SCT250=



000
FTUS43 KOAX 240520
TAFOMA
TAF
KOMA 240520Z 2406/2506 32022G32KT P6SM OVC035
     FM240700 32020G30KT P6SM OVC025
     FM241800 33021G32KT P6SM BKN035
     FM250000 31015G23KT P6SM SCT250=



000
FTUS43 KOAX 240520
TAFOFK
TAF
KOFK 240520Z 2406/2506 33022G32KT P6SM OVC035
     FM240800 32022G32KT P6SM OVC025
      TEMPO 2408/2412 -SN
     FM241600 32024G33KT P6SM BKN035
     FM250000 32015G23KT P6SM SCT250=



000
FTUS43 KOAX 240520
TAFOFK
TAF
KOFK 240520Z 2406/2506 33022G32KT P6SM OVC035
     FM240800 32022G32KT P6SM OVC025
      TEMPO 2408/2412 -SN
     FM241600 32024G33KT P6SM BKN035
     FM250000 32015G23KT P6SM SCT250=



000
FTUS43 KOAX 240356 AAB
TAFOMA
TAF AMD
KOMA 240356Z 2404/2424 32022G32KT P6SM OVC035
     FM240700 32020G30KT P6SM OVC025
     FM241600 33021G32KT P6SM BKN035=



000
FTUS43 KOAX 240356 AAB
TAFOMA
TAF AMD
KOMA 240356Z 2404/2424 32022G32KT P6SM OVC035
     FM240700 32020G30KT P6SM OVC025
     FM241600 33021G32KT P6SM BKN035=



000
FTUS43 KOAX 240356 AAB
TAFOMA
TAF AMD
KOMA 240356Z 2404/2424 32022G32KT P6SM OVC035
     FM240700 32020G30KT P6SM OVC025
     FM241600 33021G32KT P6SM BKN035=



000
FTUS43 KOAX 240356 AAB
TAFOMA
TAF AMD
KOMA 240356Z 2404/2424 32022G32KT P6SM OVC035
     FM240700 32020G30KT P6SM OVC025
     FM241600 33021G32KT P6SM BKN035=



000
FTUS43 KOAX 240212 AAA
TAFOMA
TAF AMD
KOMA 240212Z 2402/2424 33013G23KT P6SM OVC080
      TEMPO 2403/2407 BKN040
     FM240700 32020G30KT P6SM OVC025
     FM241600 33021G32KT P6SM BKN035=



000
FTUS43 KOAX 240212 AAA
TAFOMA
TAF AMD
KOMA 240212Z 2402/2424 33013G23KT P6SM OVC080
      TEMPO 2403/2407 BKN040
     FM240700 32020G30KT P6SM OVC025
     FM241600 33021G32KT P6SM BKN035=



    US Dept of Commerce
    National Oceanic and Atmospheric Administration
    National Weather Service
    1325 East West Highway
    Silver Spring, MD 20910
    Page Author: NWS Internet Services Team
Disclaimer
Information Quality
Credits
Glossary
Privacy Policy
Freedom of Information Act (FOIA)
About Us
Career Opportunities